createdAt,value
2022-09-23T00:00:18.942Z,10.91
2022-09-23T00:03:21.597Z,11.13
2022-09-23T00:06:24.210Z,10.96
2022-09-23T00:09:25.756Z,10.92
2022-09-23T00:12:27.249Z,10.81
2022-09-23T00:15:31.023Z,10.66
2022-09-23T00:18:32.722Z,10.90
2022-09-23T00:21:34.120Z,10.87
2022-09-23T00:24:35.666Z,10.95
2022-09-23T00:27:38.538Z,11.05
2022-09-23T00:30:41.585Z,10.92
2022-09-23T00:33:43.485Z,10.98
2022-09-23T00:36:44.932Z,10.65
2022-09-23T00:39:47.005Z,10.33
2022-09-23T00:42:49.820Z,10.48
2022-09-23T00:45:51.300Z,10.69
2022-09-23T00:49:00.069Z,10.69
2022-09-23T00:52:09.851Z,10.34
2022-09-23T00:55:17.481Z,10.29
2022-09-23T00:58:26.824Z,10.24
2022-09-23T01:01:28.285Z,10.40
2022-09-23T01:04:30.496Z,10.66
2022-09-23T01:07:31.901Z,10.55
2022-09-23T01:10:50.873Z,10.36
2022-09-23T01:14:23.624Z,10.57
2022-09-23T01:17:40.535Z,10.64
2022-09-23T01:21:20.960Z,10.36
2022-09-23T01:24:34.696Z,10.17
2022-09-23T01:27:49.663Z,10.10
2022-09-23T01:31:12.350Z,9.90
2022-09-23T01:34:34.023Z,9.81
2022-09-23T01:37:47.020Z,9.86
2022-09-23T01:41:28.104Z,9.72
2022-09-23T01:44:52.808Z,9.76
2022-09-23T01:48:01.351Z,9.92
2022-09-23T01:51:13.981Z,9.90
2022-09-23T01:54:23.995Z,10.12
2022-09-23T01:57:40.807Z,10.22
2022-09-23T02:00:53.125Z,10.19
2022-09-23T02:04:06.038Z,10.03
2022-09-23T02:07:20.733Z,10.16
2022-09-23T02:10:28.179Z,10.09
2022-09-23T02:13:40.683Z,10.02
2022-09-23T02:16:49.993Z,10.03
2022-09-23T02:19:56.392Z,10.05
2022-09-23T02:23:07.601Z,9.95
2022-09-23T02:26:27.627Z,9.97
2022-09-23T02:29:37.366Z,9.75
2022-09-23T02:33:02.137Z,9.61
2022-09-23T02:36:14.895Z,9.64
2022-09-23T02:39:20.637Z,9.69
2022-09-23T02:42:28.587Z,9.73
2022-09-23T02:45:30.950Z,9.63
2022-09-23T02:48:47.848Z,9.69
2022-09-23T02:51:50.641Z,9.53
2022-09-23T02:54:52.500Z,9.64
2022-09-23T02:57:53.995Z,9.53
2022-09-23T03:01:15.765Z,9.55
2022-09-23T03:04:40.401Z,9.62
2022-09-23T03:08:09.252Z,9.63
2022-09-23T03:11:13.630Z,9.28
2022-09-23T03:14:26.375Z,9.27
2022-09-23T03:17:43.970Z,9.45
2022-09-23T03:20:51.113Z,9.61
2022-09-23T03:23:54.398Z,9.63
2022-09-23T03:26:55.957Z,9.61
2022-09-23T03:29:58.465Z,9.60
2022-09-23T03:33:00.899Z,9.57
2022-09-23T03:36:25.506Z,9.52
2022-09-23T03:39:40.175Z,9.58
2022-09-23T03:42:42.361Z,9.57
2022-09-23T03:45:46.440Z,9.47
2022-09-23T03:48:49.293Z,9.45
2022-09-23T03:51:50.834Z,9.46
2022-09-23T03:54:53.052Z,9.45
2022-09-23T03:57:55.534Z,9.46
2022-09-23T04:00:58.706Z,9.46
2022-09-23T04:04:00.434Z,9.48
2022-09-23T04:07:02.465Z,9.45
2022-09-23T04:10:07.184Z,9.44
2022-09-23T04:13:08.646Z,9.39
2022-09-23T04:16:10.174Z,9.25
2022-09-23T04:19:13.054Z,9.45
2022-09-23T04:22:14.678Z,9.40
2022-09-23T04:25:16.133Z,9.42
2022-09-23T04:28:17.550Z,9.42
2022-09-23T04:31:18.959Z,9.39
2022-09-23T04:34:20.653Z,9.40
2022-09-23T04:37:22.065Z,9.34
2022-09-23T04:40:23.532Z,9.43
2022-09-23T04:43:25.109Z,9.41
2022-09-23T04:46:26.665Z,9.55
2022-09-23T04:49:33.676Z,9.42
2022-09-23T04:52:35.097Z,9.24
2022-09-23T04:55:36.488Z,9.21
2022-09-23T04:58:39.807Z,9.29
2022-09-23T05:01:41.708Z,9.36
2022-09-23T05:04:43.273Z,9.55
2022-09-23T05:07:44.766Z,9.39
2022-09-23T05:10:46.437Z,9.47
2022-09-23T05:13:49.183Z,9.57
2022-09-23T05:16:50.708Z,9.67
2022-09-23T05:19:52.093Z,9.70
2022-09-23T05:22:56.122Z,9.43
2022-09-23T05:26:02.616Z,9.34
2022-09-23T05:29:04.362Z,9.47
2022-09-23T05:32:05.907Z,9.63
2022-09-23T05:35:07.932Z,9.71
2022-09-23T05:38:09.593Z,9.75
2022-09-23T05:41:13.913Z,9.82
2022-09-23T05:44:15.363Z,9.90
2022-09-23T05:47:16.785Z,9.93
2022-09-23T05:50:18.185Z,9.94
2022-09-23T05:53:19.728Z,10.02
2022-09-23T05:56:24.113Z,10.03
2022-09-23T05:59:25.916Z,10.01
2022-09-23T06:02:27.483Z,9.96
2022-09-23T06:05:30.957Z,9.99
2022-09-23T06:08:34.508Z,9.89
2022-09-23T06:11:36.969Z,9.89
2022-09-23T06:14:38.431Z,9.97
2022-09-23T06:17:39.961Z,9.98
2022-09-23T06:20:41.461Z,10.08
2022-09-23T06:23:44.171Z,10.24
2022-09-23T06:26:45.560Z,10.36
2022-09-23T06:29:47.006Z,10.43
2022-09-23T06:32:52.569Z,10.43
2022-09-23T06:35:59.852Z,10.74
2022-09-23T06:39:02.298Z,10.79
2022-09-23T06:42:06.670Z,10.91
2022-09-23T06:45:12.995Z,11.04
2022-09-23T06:48:14.438Z,11.08
2022-09-23T06:51:19.268Z,11.08
2022-09-23T06:54:20.680Z,11.24
2022-09-23T06:57:22.229Z,11.24
2022-09-23T07:00:24.396Z,11.32
2022-09-23T07:03:25.835Z,11.43
2022-09-23T07:06:27.281Z,11.50
2022-09-23T07:09:28.989Z,11.52
2022-09-23T07:12:30.424Z,11.64
2022-09-23T07:15:33.854Z,11.72
2022-09-23T07:18:37.536Z,11.86
2022-09-23T07:21:39.224Z,11.94
2022-09-23T07:24:40.620Z,12.02
2022-09-23T07:27:42.017Z,12.08
2022-09-23T07:30:56.036Z,12.05
2022-09-23T07:34:02.085Z,12.02
2022-09-23T07:37:04.129Z,12.17
2022-09-23T07:40:06.020Z,12.22
2022-09-23T07:43:09.584Z,12.31
2022-09-23T07:46:16.494Z,12.37
2022-09-23T07:49:18.016Z,12.53
2022-09-23T07:52:20.207Z,12.60
2022-09-23T07:55:21.610Z,12.58
2022-09-23T07:58:23.377Z,12.59
2022-09-23T08:01:24.813Z,12.79
2022-09-23T08:04:29.618Z,12.98
2022-09-23T08:07:34.310Z,13.16
2022-09-23T08:10:35.865Z,13.34
2022-09-23T08:13:37.496Z,13.51
2022-09-23T08:16:44.767Z,13.65
2022-09-23T08:19:46.191Z,13.95
2022-09-23T08:22:50.662Z,14.12
2022-09-23T08:26:03.970Z,14.30
2022-09-23T08:29:05.745Z,14.55
2022-09-23T08:32:07.123Z,14.82
2022-09-23T08:35:08.794Z,14.87
2022-09-23T08:38:10.342Z,14.81
2022-09-23T08:41:31.072Z,14.71
2022-09-23T08:44:45.798Z,14.33
2022-09-23T08:47:56.124Z,14.36
2022-09-23T08:51:12.602Z,14.87
2022-09-23T08:54:17.697Z,15.03
2022-09-23T08:57:37.546Z,15.05
2022-09-23T09:00:46.128Z,14.84
2022-09-23T09:03:56.335Z,15.13
2022-09-23T09:07:31.853Z,14.97
2022-09-23T09:10:39.159Z,15.37
2022-09-23T09:14:04.799Z,15.47
2022-09-23T09:17:10.180Z,15.59
2022-09-23T09:20:29.710Z,15.60
2022-09-23T09:23:55.453Z,15.73
2022-09-23T09:26:56.980Z,15.99
2022-09-23T09:30:01.280Z,16.15
2022-09-23T09:33:14.311Z,16.53
2022-09-23T09:36:30.842Z,17.03
2022-09-23T09:39:36.763Z,16.70
2022-09-23T09:42:42.634Z,17.30
2022-09-23T09:45:57.685Z,17.71
2022-09-23T09:49:07.561Z,18.01
2022-09-23T09:52:25.904Z,17.92
2022-09-23T09:55:28.498Z,18.20
2022-09-23T09:58:43.770Z,17.92
2022-09-23T10:01:46.172Z,17.94
2022-09-23T10:04:56.378Z,18.13
2022-09-23T10:08:32.095Z,18.51
2022-09-23T10:11:33.642Z,18.80
2022-09-23T10:14:36.265Z,19.49
2022-09-23T10:17:39.042Z,19.97
2022-09-23T10:20:40.525Z,19.68
2022-09-23T10:23:44.941Z,19.65
2022-09-23T10:26:55.761Z,20.15
2022-09-23T10:30:00.209Z,20.24
2022-09-23T10:33:02.042Z,20.09
2022-09-23T10:36:03.546Z,20.78
2022-09-23T10:39:44.531Z,21.22
2022-09-23T10:43:21.623Z,20.69
2022-09-23T10:46:38.385Z,20.93
2022-09-23T10:49:52.592Z,21.12
2022-09-23T10:53:03.415Z,20.80
2022-09-23T10:56:19.593Z,20.69
2022-09-23T10:59:41.102Z,20.84
2022-09-23T11:03:09.405Z,21.74
2022-09-23T11:06:37.203Z,21.65
2022-09-23T11:10:23.362Z,22.14
2022-09-23T11:13:42.598Z,22.01
2022-09-23T11:17:15.071Z,21.65
2022-09-23T11:20:38.686Z,21.64
2022-09-23T11:23:55.396Z,22.30
2022-09-23T11:27:32.000Z,21.94
2022-09-23T11:31:10.055Z,21.49
2022-09-23T11:34:17.549Z,20.71
2022-09-23T11:37:24.227Z,20.65
2022-09-23T11:40:38.822Z,20.89
2022-09-23T11:43:47.317Z,20.04
2022-09-23T11:46:55.632Z,19.85
2022-09-23T11:50:05.008Z,19.79
2022-09-23T11:53:23.674Z,19.71
2022-09-23T11:56:36.353Z,19.81
2022-09-23T12:03:29.686Z,19.35
2022-09-23T12:06:43.432Z,19.31
2022-09-23T12:10:06.784Z,19.35
2022-09-23T12:13:19.284Z,18.88
2022-09-23T12:16:33.777Z,19.09
2022-09-23T12:19:56.789Z,19.35
2022-09-23T12:23:14.698Z,19.46
2022-09-23T12:26:20.842Z,19.42
2022-09-23T12:29:25.475Z,19.39
2022-09-23T12:32:27.817Z,19.43
2022-09-23T12:35:39.982Z,19.29
2022-09-23T12:38:49.924Z,19.44
2022-09-23T12:42:00.405Z,19.48
2022-09-23T12:45:32.380Z,19.45
2022-09-23T12:48:46.257Z,19.53
2022-09-23T12:52:12.359Z,19.60
2022-09-23T12:55:23.275Z,19.62
2022-09-23T12:58:43.045Z,19.66
2022-09-23T13:01:44.859Z,19.71
2022-09-23T13:05:13.333Z,19.65
2022-09-23T13:08:18.709Z,19.57
2022-09-23T13:11:27.306Z,19.56
2022-09-23T13:14:32.684Z,19.48
2022-09-23T13:17:38.079Z,19.60
2022-09-23T13:20:40.722Z,19.67
2022-09-23T13:24:16.183Z,19.44
2022-09-23T13:27:21.934Z,19.67
2022-09-23T13:30:27.015Z,19.76
2022-09-23T13:33:31.105Z,19.59
2022-09-23T13:36:43.661Z,19.61
2022-09-23T13:39:45.108Z,19.70
2022-09-23T13:42:50.813Z,19.80
2022-09-23T13:45:52.350Z,19.77
2022-09-23T13:48:55.395Z,19.80
2022-09-23T13:51:57.412Z,19.94
2022-09-23T13:54:58.924Z,20.04
2022-09-23T13:58:03.223Z,19.94
2022-09-23T14:01:08.763Z,19.86
2022-09-23T14:04:24.287Z,19.64
2022-09-23T14:07:26.596Z,19.66
2022-09-23T14:10:28.264Z,19.69
2022-09-23T14:13:32.230Z,19.53
2022-09-23T14:16:38.175Z,19.42
2022-09-23T14:19:42.407Z,19.48
2022-09-23T14:22:44.342Z,19.49
2022-09-23T14:25:46.420Z,19.41
2022-09-23T14:28:48.389Z,19.40
2022-09-23T14:31:57.299Z,19.36
2022-09-23T14:35:05.348Z,19.51
2022-09-23T14:38:25.554Z,19.56
2022-09-23T14:41:27.019Z,19.59
2022-09-23T14:44:29.497Z,19.41
2022-09-23T14:47:33.416Z,19.39
2022-09-23T14:50:46.954Z,19.28
2022-09-23T14:53:48.962Z,19.26
2022-09-23T14:56:50.372Z,19.38
2022-09-23T14:59:59.870Z,19.39
2022-09-23T15:03:03.489Z,19.43
2022-09-23T15:06:09.259Z,19.37
2022-09-23T15:09:20.017Z,19.29
2022-09-23T15:12:22.145Z,19.26
2022-09-23T15:15:27.978Z,19.27
2022-09-23T15:18:33.919Z,19.29
2022-09-23T15:21:42.277Z,19.32
2022-09-23T15:24:45.575Z,19.17
2022-09-23T15:28:05.718Z,19.23
2022-09-23T15:31:09.119Z,19.21
2022-09-23T15:34:11.014Z,19.28
2022-09-23T15:37:12.645Z,19.17
2022-09-23T15:40:31.287Z,19.19
2022-09-23T15:43:32.705Z,19.19
2022-09-23T15:46:34.153Z,19.15
2022-09-23T15:49:38.932Z,19.05
2022-09-23T15:52:41.431Z,19.11
2022-09-23T15:55:42.955Z,19.14
2022-09-23T15:58:44.392Z,19.13
2022-09-23T16:01:46.019Z,18.99
2022-09-23T16:04:50.230Z,18.89
2022-09-23T16:07:52.470Z,18.72
2022-09-23T16:10:55.006Z,18.66
2022-09-23T16:13:56.618Z,18.64
2022-09-23T16:16:58.232Z,18.55
2022-09-23T16:19:59.737Z,18.54
2022-09-23T16:23:04.497Z,18.51
2022-09-23T16:26:11.139Z,18.42
2022-09-23T16:29:12.614Z,18.46
2022-09-23T16:32:15.334Z,18.30
2022-09-23T16:35:20.737Z,18.23
2022-09-23T16:38:22.171Z,18.21
2022-09-23T16:41:25.276Z,18.25
2022-09-23T16:44:26.697Z,18.18
2022-09-23T16:47:28.790Z,18.20
2022-09-23T16:50:32.003Z,18.08
2022-09-23T16:53:34.734Z,18.11
2022-09-23T16:56:44.894Z,18.10
2022-09-23T17:00:05.060Z,17.94
2022-09-23T17:03:24.805Z,17.99
2022-09-23T17:06:27.845Z,17.93
2022-09-23T17:09:30.132Z,17.87
2022-09-23T17:12:33.521Z,17.81
2022-09-23T17:15:39.512Z,17.80
2022-09-23T17:18:40.963Z,17.73
2022-09-23T17:21:42.635Z,17.63
2022-09-23T17:24:44.055Z,17.60
2022-09-23T17:27:47.845Z,17.55
2022-09-23T17:30:59.527Z,17.27
2022-09-23T17:34:01.053Z,17.18
2022-09-23T17:37:02.572Z,17.11
2022-09-23T17:40:05.035Z,16.99
2022-09-23T17:43:07.672Z,16.93
2022-09-23T17:46:12.788Z,16.86
2022-09-23T17:49:14.984Z,16.70
2022-09-23T17:52:19.661Z,16.70
2022-09-23T17:55:21.064Z,16.61
2022-09-23T17:58:31.423Z,16.68
2022-09-23T18:01:32.871Z,16.52
2022-09-23T18:04:34.333Z,16.40
2022-09-23T18:07:35.726Z,16.21
2022-09-23T18:10:37.128Z,16.14
2022-09-23T18:13:38.574Z,16.06
2022-09-23T18:16:42.172Z,15.92
2022-09-23T18:19:46.369Z,15.80
2022-09-23T18:22:47.779Z,15.87
2022-09-23T18:25:49.180Z,15.84
2022-09-23T18:29:01.560Z,15.96
2022-09-23T18:32:03.720Z,15.96
2022-09-23T18:35:05.849Z,16.09
2022-09-23T18:38:07.179Z,15.94
2022-09-23T18:41:09.237Z,16.04
2022-09-23T18:44:10.715Z,15.69
2022-09-23T18:47:32.148Z,15.67
2022-09-23T18:50:39.393Z,15.63
2022-09-23T18:53:43.766Z,15.58
2022-09-23T18:56:46.371Z,15.56
2022-09-23T18:59:47.813Z,15.84
2022-09-23T19:02:49.204Z,15.73
2022-09-23T19:05:51.298Z,15.68
2022-09-23T19:08:54.195Z,15.50
2022-09-23T19:11:55.808Z,15.58
2022-09-23T19:14:57.253Z,15.63
2022-09-23T19:17:58.667Z,15.73
2022-09-23T19:21:03.595Z,15.43
2022-09-23T19:24:08.147Z,15.47
2022-09-23T19:27:09.668Z,15.37
2022-09-23T19:30:12.020Z,15.55
2022-09-23T19:33:13.423Z,15.34
2022-09-23T19:36:15.110Z,15.43
2022-09-23T19:39:22.202Z,15.27
2022-09-23T19:42:27.046Z,15.23
2022-09-23T19:45:30.198Z,15.44
2022-09-23T19:48:31.622Z,15.40
2022-09-23T19:51:34.217Z,15.42
2022-09-23T19:54:35.765Z,15.41
2022-09-23T19:57:37.162Z,15.37
2022-09-23T20:00:38.647Z,15.33
2022-09-23T20:03:40.173Z,15.31
2022-09-23T20:06:41.736Z,15.34
2022-09-23T20:09:43.136Z,15.29
2022-09-23T20:12:44.524Z,14.93
2022-09-23T20:15:48.150Z,15.03
2022-09-23T20:18:52.143Z,15.02
2022-09-23T20:22:13.626Z,15.02
2022-09-23T20:25:15.214Z,14.83
2022-09-23T20:28:16.629Z,14.76
2022-09-23T20:31:20.834Z,14.85
2022-09-23T20:34:22.480Z,15.01
2022-09-23T20:37:24.715Z,14.80
2022-09-23T20:40:26.192Z,14.75
2022-09-23T20:43:28.122Z,14.66
2022-09-23T20:46:30.151Z,14.59
2022-09-23T20:49:34.027Z,14.49
2022-09-23T20:52:36.152Z,14.59
2022-09-23T20:55:37.467Z,14.59
2022-09-23T20:58:39.054Z,14.57
2022-09-23T21:01:41.263Z,14.62
2022-09-23T21:04:42.754Z,14.66
2022-09-23T21:07:46.953Z,14.71
2022-09-23T21:10:55.925Z,14.68
2022-09-23T21:14:02.465Z,14.74
2022-09-23T21:17:03.869Z,14.72
2022-09-23T21:20:05.887Z,14.61
2022-09-23T21:23:07.944Z,14.34
2022-09-23T21:26:12.078Z,14.44
2022-09-23T21:29:13.833Z,14.19
2022-09-23T21:32:15.228Z,13.95
2022-09-23T21:35:18.711Z,14.18
2022-09-23T21:38:20.139Z,14.00
2022-09-23T21:41:22.330Z,14.31
2022-09-23T21:44:23.741Z,14.29
2022-09-23T21:47:25.998Z,14.36
2022-09-23T21:50:29.970Z,14.39
2022-09-23T21:53:32.037Z,14.54
2022-09-23T21:56:35.286Z,14.56
2022-09-23T21:59:36.686Z,14.56
2022-09-23T22:02:40.035Z,14.38
2022-09-23T22:05:44.023Z,14.45
2022-09-23T22:08:45.867Z,14.50
2022-09-23T22:12:05.511Z,14.22
2022-09-23T22:15:07.130Z,14.09
2022-09-23T22:18:08.556Z,13.97
2022-09-23T22:21:09.935Z,14.07
2022-09-23T22:24:12.525Z,13.95
2022-09-23T22:27:16.436Z,14.22
2022-09-23T22:30:36.515Z,14.38
2022-09-23T22:33:37.845Z,14.34
2022-09-23T22:36:39.161Z,14.29
2022-09-23T22:39:40.560Z,14.18
2022-09-23T22:42:43.144Z,14.33
2022-09-23T22:45:51.526Z,14.28
2022-09-23T22:48:53.358Z,14.38
2022-09-23T22:51:54.667Z,14.41
2022-09-23T22:54:56.007Z,14.38
2022-09-23T22:57:57.391Z,14.34
2022-09-23T23:00:58.718Z,14.05
2022-09-23T23:04:03.148Z,14.10
2022-09-23T23:07:05.989Z,14.03
2022-09-23T23:10:10.363Z,14.11
2022-09-23T23:13:11.923Z,14.11
2022-09-23T23:16:13.360Z,13.98
2022-09-23T23:19:16.947Z,13.95
2022-09-23T23:22:18.558Z,14.10
2022-09-23T23:25:19.890Z,14.16
2022-09-23T23:28:21.233Z,14.25
2022-09-23T23:31:24.137Z,14.17
2022-09-23T23:34:25.702Z,13.98
2022-09-23T23:37:28.686Z,13.69
2022-09-23T23:40:30.032Z,13.62
2022-09-23T23:43:31.970Z,13.72
2022-09-23T23:46:33.523Z,13.64
2022-09-23T23:49:34.889Z,13.69
2022-09-23T23:52:36.242Z,13.49
2022-09-23T23:55:38.755Z,13.47
2022-09-23T23:58:40.177Z,13.42
